Terminal Aerodrome Forecast
Issued by NWS

Home | Current Version | Previous Version | Text Only | Print | Product List | Glossary On
Versions: 1 2 3 4 5 6 7 8 9 10 11 12 13 14 15 16 17 18 19 20 21
715
FTUS43 KSGF 012325
TAFJLN
TAF
KJLN 012325Z 0200/0224 33006KT P6SM FEW045 SCT110 BKN200
     FM020500 34006KT P6SM VCSH BKN035
     FM020800 34004KT P6SM VCSH BKN015
      TEMPO 0211/0214 BKN009
     FM021600 34008KT P6SM BKN025
     FM022100 33008KT P6SM BKN035=

USA.gov is the U.S. government's official web portal to all federal, state and local government web resources and services.